FR-0075 weather

Centre Hospitalier de Lons le Saunier Heliport
Lons Le Saunier, Franche-Comté, France

Public forecast

Using degrees Celsius for public forecast. Weather courtesy of forecast.io.

METAR (pilot weather report)

Closest report is Dole-Tavaux Airport, 22.4 nm (41.5 km) NNW. Retrieved 2019/07/21 07:30 UTC (15 minutes ago):

LFGJ 210730Z AUTO 05004KT 010V100 9999 FEW017 24/20 Q1022

TAF (pilot weather forecast)

Closest forecast is Geneva Cointrin International Airport, 35.1 nm (65.0 km) SE. Retrieved 2019/07/21 09:33 UTC (0 seconds ago):

TAF TAF LSGG 210825Z 2109/2215 VRB03KT 9999 FEW050 TX30/2115Z TN16/2204Z TX31/2215Z BECMG 2110/2112 23007KT BECMG 2118/2120 VRB03KT CAVOK